Tiempo atmosférico en la estación meteorológica de Ciudad Real, Ciudad Real (628 m.)



Fecha
DESCASC
Temp. máxima en grados centígrados (hora)
DESCASC
Temp. mínima en grados centígrados (hora)
DESCASC
Temp. media en grados centígrados
DESCASC
Racha de viento máxima en m/sg (hora)
DESCASC
Velocidad máxima media en intervalos de 10 minutos(hora)
DESCASC
Precipitaciones diarias en mm
DESCASC
Precipitaciones de 00:00 a 06:00 en mm
DESCASC
Precipitaciones de 06:00 a 12:00 en mm
DESCASC
Precipitaciones de 12:00 a 18:00 en mm
DESCASC
Precipitaciones de 18:00 a 24:00 en mm
DESCASC
21-02-2019 19.1 (16:30) 1 (08:10) 10.1 5.28 (14:00) 3.06 (14:30) 0 0 0 0 0
20-02-2019 16.6 (16:20) 2.2 (07:50) 9.4 3.89 (11:30) 2.5 (11:30) 0 0 0 0 0
19-02-2019 16.5 (16:20) 2.9 (08:40) 9.7 6.11 (18:20) 2.78 (18:20) 0 0 0 0 0
18-02-2019 15.8 (16:10) 1.8 (06:20) 8.8 6.11 (10:20) 3.61 (10:10) 0 0 0 0 0
17-02-2019 17.8 (16:00) 0 (00:00) 8.9 5.28 (00:30) 2.78 (00:30) 0 0 0 0 0
16-02-2019 17.1 (16:40) 3.7 (00:00) 10.4 10 (09:40) 5.28 (11:10) 0 0 0 0 0
15-02-2019 15.6 (16:20) 2.3 (00:00) 9 7.5 (12:10) 4.44 (11:40) 0 0 0 0 0
14-02-2019 16.3 (15:40) 2 (00:00) 9.1 7.5 (11:30) 4.44 (10:10) 0 0 0 0 0
13-02-2019 14.8 (16:30) 1.7 (00:00) 8.3 5 (12:20) 3.06 (12:20) 0 0 0 0 0
12-02-2019 15 (16:00) 1.3 (00:00) 8.1 6.67 (11:00) 3.61 (11:00) 0 0 0 0 0
11-02-2019 15.2 (15:20) 6.3 (00:00) 10.8 6.39 (02:20) 3.61 (02:20) 0.4 0.4 0 0 0
10-02-2019 12.9 (13:30) 5.5 (00:00) 9.2 8.89 (17:40) 4.17 (12:50) 0 0 0 0 0
09-02-2019 16.8 (15:50) 0.4 (00:00) 8.6 5.83 (17:10) 2.78 (17:20) 0 0 0 0 0
08-02-2019 17.8 (15:30) 0.2 (00:00) 9 6.67 (16:30) 3.06 (15:00) 0 0 0 0 0
07-02-2019 17.7 (14:40) 1.4 (00:00) 9.6 4.72 (18:30) 2.78 (18:30) 0 0 0 0 0
06-02-2019 17.6 (15:10) 0.3 (00:00) 9 3.89 (17:50) 1.94 (17:10) 0 0 0 0 0
05-02-2019 15.3 (15:30) -1.1 (-00:0) 7.1 3.61 (14:30) 1.67 (14:20) 0 0 0 0 0
04-02-2019 12.2 (16:20) -2.6 (-00:0) 4.8 3.06 (15:40) 1.67 (11:40) 0 0 0 0 0
03-02-2019 9.6 (15:00) -1.1 (-00:0) 4.3 6.67 (13:30) 3.61 (11:50) 0 0 0 0 0
02-02-2019 9.9 (15:00) 2.7 (00:00) 6.3 13.33 (00:40) 6.39 (15:50) 0 0 0 0 0
01-02-2019 11.5 (15:00) 4.4 (00:00) 8 15.83 (15:50) 8.06 (14:40) 14.8 7.6 1.2 5.8 0.2
31-01-2019 13.4 (14:30) 8.9 (00:00) 11.1 14.17 (13:10) 7.5 (13:10) 1.2 0.4 0.2 0.4 0.2
30-01-2019 11.4 (15:10) 5.3 (00:00) 8.3 11.39 (23:40) 5 (23:40) 0.6 0 0 0 0.6
29-01-2019 11.5 (13:20) 5.8 (00:00) 8.7 12.78 (17:00) 5.83 (13:20) 0 0 0 0 0
28-01-2019 12.3 (17:10) 2.1 (00:00) 7.2 11.11 (19:00) 5.83 (19:20) 0 0 0 0 0
27-01-2019 12.9 (14:50) 3.9 (00:00) 8.4 7.78 (15:40) 4.72 (15:40) 0 0 0 0 0
26-01-2019 16.1 (15:40) 0 (00:00) 8.1 4.72 (20:50) 2.5 (20:50) 0 0 0 0 0
25-01-2019 16.9 (14:20) 3.8 (00:00) 10.3 6.67 (14:20) 2.78 (14:40) 0 0 0 0 0
24-01-2019 16.7 (16:10) 6 (00:00) 11.4 7.78 (15:50) 4.17 (14:40) 0 0 0 0 0

Gráficas

Temp. máximas Temp. mínimas Temp. medias Precipitaciones Rachas de viento máximas Velocidades máximas media en intervalos de 10 minutos

Datos horarios

Fecha y hora oficial Temperatura (ºC) Velocidad del viento (km/h) Dirección del viento Racha (km/h) Dirección de racha Precipitación (mm) Presión (hPa) Tendencia (hPa) Humedad (%)
2019-02-22 23:00:00 7.9 0 Calma 3 Sur 0 -- -- 49
2019-02-22 22:00:00 9.5 2 Noroeste 6 Noroeste 0 956.7 0.6 44
2019-02-22 21:00:00 11.2 0 Calma 4 Norte 0 956.5 0.6 37
2019-02-22 20:00:00 13.6 3 Noroeste 7 Noroeste 0 956.4 0.5 31
2019-02-22 19:00:00 16.7 2 Norte 9 Noroeste 0 956.1 0.2 23
2019-02-22 18:00:00 18.6 4 Noroeste 11 Noroeste 0 955.9 -0.3 19
2019-02-22 17:00:00 19.8 3 Nordeste 15 Noroeste 0 955.9 -1 16
2019-02-22 16:00:00 21 4 Sudeste 11 Este 0 955.9 -1.9 13
2019-02-22 15:00:00 19.5 7 Este 16 Nordeste 0 956.2 -2.1 20
2019-02-22 14:00:00 17.6 5 Este 13 Nordeste 0 956.9 -1.4 25
2019-02-22 13:00:00 15.1 3 Norte 9 Nordeste 0 957.8 -0.4 32
2019-02-22 12:00:00 11.5 3 Nordeste 14 Nordeste 0 958.3 0.1 44
2019-02-22 11:00:00 8.1 7 Nordeste 16 Este 0 958.3 0.3 53
2019-02-22 10:00:00 4.7 8 Este 15 Este 0 958.2 0.4 62
2019-02-22 09:00:00 1.3 6 Este 8 Este 0 958.2 0.6 72
2019-02-22 08:00:00 0.6 2 Sudeste 7 Nordeste 0 958 0.7 74
2019-02-22 07:00:00 1.2 5 Nordeste 9 Nordeste 0 957.8 0.6 71
2019-02-22 06:00:00 1.9 5 Nordeste 9 Este 0 957.6 0 67
2019-02-22 05:00:00 2.7 6 Nordeste 12 Nordeste 0 957.3 -0.2 63
2019-02-22 04:00:00 3.3 7 Este 11 Nordeste 0 957.2 -0.1 58
2019-02-22 03:00:00 3.9 2 Norte 5 Este 0 957.6 0.6 59
2019-02-22 02:00:00 5.4 4 Este 9 Este 0 957.5 0.9 52
2019-02-22 01:00:00 5.8 4 Este 5 Sudeste 0 957.3 1.3 53
2019-02-22 00:00:00 6.9 4 Norte 5 Norte 0 957 1.6 49
2019-02-21 23:00:00 8 4 Este 8 Nordeste 0 956.6 2 45
2019-02-21 22:00:00 9.1 5 Nordeste 10 Nordeste 0 956 2 41
2019-02-21 21:00:00 10.5 5 Norte 13 Nordeste 0 955.4 1.7 38
2019-02-21 20:00:00 12.5 3 Norte 6 Norte 0 954.6 0.9 35
2019-02-21 19:00:00 15.2 3 Nordeste 7 Este 0 954 0.3 28
2019-02-21 18:00:00 17.2 2 Nordeste 13 Este 0 953.7 0.1 22
2019-02-21 17:00:00 18.7 8 Sudeste 15 Este 0 953.7 -0.3 14
2019-02-21 16:00:00 19 8 Sudeste 15 Sudeste 0 953.7 -0.9 18
2019-02-21 15:00:00 17.4 9 Este 19 Este 0 953.6 -1.2 27
2019-02-21 14:00:00 15.8 10 Este 19 Este 0 954 -0.5 34
2019-02-21 13:00:00 13.5 10 Este 18 Este 0 954.6 0.3 47
2019-02-21 12:00:00 10.4 6 Nordeste 15 Nordeste 0 954.8 1 61
2019-02-21 11:00:00 6.9 6 Este 15 Este 0 954.5 1.4 70
2019-02-21 10:00:00 3.8 6 Nordeste 15 Nordeste 0 954.3 1.4 82
2019-02-21 09:00:00 1.3 5 Este 8 Nordeste 0 953.8 1.2 89
2019-02-21 08:00:00 1.1 3 Nordeste 9 Este 0 953.1 0.6 88
2019-02-21 07:00:00 1.6 6 Nordeste 10 Nordeste 0 952.9 0.3 85
2019-02-21 06:00:00 2.2 5 Nordeste 8 Nordeste 0 952.6 0.1 82
2019-02-21 05:00:00 2.9 6 Nordeste 11 Nordeste 0 952.5 0.2 79
2019-02-21 04:00:00 3.7 6 Nordeste 10 Nordeste 0 952.6 0.5 78
2019-02-21 03:00:00 4.5 5 Este 9 Nordeste 0 952.5 0.5 80
2019-02-21 02:00:00 5.6 5 Nordeste 10 Nordeste 0 952.3 0.4 77
2019-02-21 01:00:00 5.8 4 Nordeste 9 Nordeste 0 952.1 0.7 78
2019-02-21 00:00:00 6.6 0 Calma 3 Nordeste 0 952 1.1 75
2019-02-20 23:00:00 7.8 2 Este 8 Este 0 951.9 1.4 70
2019-02-20 22:00:00 8.5 3 Nordeste 6 Nordeste 0 951.4 1.5 64
2019-02-20 21:00:00 9.9 2 Norte 6 Nordeste 0 950.9 1.2 60
2019-02-20 20:00:00 11.7 2 Norte 6 Nordeste 0 950.5 0.8 54
2019-02-20 19:00:00 13.8 2 Nordeste 11 Este 0 949.9 0.1 46
2019-02-20 18:00:00 15.3 4 Este 13 Nordeste 0 949.7 -- 41
2019-02-20 17:00:00 16.2 4 Nordeste 10 Este 0 949.7 -- 40
2019-02-20 16:00:00 16.2 3 Este 9 Noroeste 0 949.8 -- 39
2019-02-20 15:00:00 15.6 3 Nordeste 9 Nordeste 0 -- -- 45
2019-02-20 14:00:00 13.2 4 Nordeste 10 Nordeste 0 -- -- 55
2019-02-20 13:00:00 10.9 4 Nordeste 14 Nordeste 0 -- -- 67
2019-02-20 12:00:00 8.2 6 Nordeste 14 Este 0 -- -- 74
2019-02-20 11:00:00 6 6 Nordeste 14 Nordeste 0 -- -- 80
2019-02-20 10:00:00 4.2 8 Este 13 Nordeste 0 950.5 1.9 88
2019-02-20 09:00:00 2.6 5 Este 9 Este 0 950 1.6 93
2019-02-20 08:00:00 2.2 4 Este 6 Sudeste 0 949.1 0.9 91
2019-02-20 07:00:00 2.9 3 Nordeste 11 Este 0 948.6 0.3 91
2019-02-20 06:00:00 3.1 3 Este 10 Nordeste 0 948.4 0.1 86
2019-02-20 05:00:00 3.4 5 Este 11 Nordeste 0 948.2 -0.1 86
2019-02-20 04:00:00 4 4 Norte 6 Norte 0 948.3 0.4 85
2019-02-20 03:00:00 4.6 3 Sur 5 Este 0 948.3 0.5 82
2019-02-20 02:00:00 5.7 3 Este 5 Este 0 948.3 0.5 78
2019-02-20 01:00:00 7.2 4 Este 10 Noroeste 0 947.9 0.5 73
2019-02-20 00:00:00 8.6 3 Oeste 12 Oeste 0 947.8 0.7 69
2019-02-19 23:00:00 8.5 3 Oeste 7 Oeste 0 947.8 1.2 70
2019-02-19 22:00:00 10.3 4 Oeste 8 Oeste 0 947.4 1.3 64
2019-02-19 21:00:00 10.4 4 Noroeste 12 Noroeste 0 947.1 1.8 61
2019-02-19 20:00:00 11.7 5 Oeste 13 Sudoeste 0 946.6 1.2 55
2019-02-19 19:00:00 12.8 8 Oeste 22 Sur 0 946.1 0.5 53
2019-02-19 18:00:00 15.4 5 Sur 8 Sudoeste 0 945.3 -0.6 36
2019-02-19 17:00:00 16.1 3 Nordeste 11 Noroeste 0 945.4 -1 35
2019-02-19 16:00:00 15.9 3 Norte 10 Noroeste 0 945.6 -1.7 35
2019-02-19 15:00:00 15.7 4 Noroeste 12 Noroeste 0 945.9 -1.7 41
2019-02-19 14:00:00 14.2 5 Norte 10 Norte 0 946.4 -1.4 51
2019-02-19 13:00:00 11.7 3 Sudeste 12 Sudeste 0 947.3 -0.4 62
2019-02-19 12:00:00 8.2 6 Este 11 Nordeste 0 947.6 0.4 77
2019-02-19 11:00:00 4 7 Este 12 Este 0 947.8 1.2 90
2019-02-19 10:00:00 3.9 6 Nordeste 12 Nordeste 0 947.7 1.5 89
2019-02-19 09:00:00 2.9 4 Nordeste 9 Nordeste 0 947.2 1 91
2019-02-19 08:00:00 3.4 2 Este 5 Este 0 946.6 0.3 89
2019-02-19 07:00:00 3.7 2 Nordeste 7 Este 0 946.2 -0.1 88
2019-02-19 06:00:00 3.9 4 Este 7 Sudeste 0 946.2 0 83
2019-02-19 05:00:00 3.7 4 Sudeste 8 Sudeste 0 946.3 0.3 85
2019-02-19 04:00:00 3.7 4 Sudeste 8 Sudeste 0 946.3 0.6 83
2019-02-19 03:00:00 4.5 4 Este 6 Sudeste 0 946.2 0.5 78
2019-02-19 02:00:00 4.8 3 Este 4 Nordeste 0 946 0.7 77
2019-02-19 01:00:00 5.6 3 Noroeste 5 Este 0 945.7 0.6 74
2019-02-19 00:00:00 6.2 3 Nordeste 6 Este 0 945.7 1.1 70
2019-02-18 23:00:00 7.2 3 Norte 6 Nordeste 0 945.3 0.9 65
2019-02-18 22:00:00 8.5 4 Nordeste 8 Nordeste 0 945.1 1.3 60
2019-02-18 21:00:00 9.8 4 Noroeste 6 Noroeste 0 944.6 1 54
2019-02-18 20:00:00 11.6 0 Calma 7 Norte 0 944.4 0.8 48
2019-02-18 19:00:00 13.9 3 Norte 9 Nordeste 0 943.8 0.1 40
2019-02-18 18:00:00 15.3 6 Nordeste 13 Norte 0 943.6 -0.5 34
2019-02-18 17:00:00 15.7 4 Nordeste 13 Nordeste 0 943.6 -1.1 34
2019-02-18 16:00:00 15.7 6 Nordeste 13 Este 0 943.7 -1.7 35
2019-02-18 15:00:00 15 5 Este 15 Nordeste 0 944.1 -1.8 37
2019-02-18 14:00:00 13.6 8 Este 20 Este 0 944.7 -1.4 45
2019-02-18 13:00:00 12.3 9 Este 19 Nordeste 0 945.4 -0.6 54
2019-02-18 12:00:00 9.6 12 Este 20 Este 0 945.9 0.1 66
2019-02-18 11:00:00 7 11 Nordeste 22 Este 0 946.1 1 77
2019-02-18 10:00:00 4.5 10 Este 18 Nordeste 0 946 0.7 90
2019-02-18 09:00:00 2.7 6 Este 11 Este 0 945.8 0.5 95
2019-02-18 08:00:00 2.3 5 Este 9 Nordeste 0 945.1 -0.3 94
2019-02-18 07:00:00 1.8 4 Este 6 Este 0 945.3 -0.5 96
2019-02-18 06:00:00 1.9 4 Este 9 Este 0 945.3 -0.8 93
2019-02-18 05:00:00 2.1 6 Nordeste 13 Este 0 945.4 -0.8 91
2019-02-18 04:00:00 2.1 6 Este 10 Este 0 945.8 -0.8 85
2019-02-18 03:00:00 3.1 4 Norte 12 Nordeste 0 946.1 -0.7 80
2019-02-18 02:00:00 4.1 4 Nordeste 8 Norte 0 946.2 -0.7 78
2019-02-18 01:00:00 4.5 3 Nordeste 6 Nordeste 0 946.6 -0.2 68
2019-02-18 00:00:00 5.5 2 Nordeste 6 Norte 0 946.8 0.1 61
2019-02-17 23:00:00 6.4 2 Norte 10 Noroeste 0 946.9 0.5 57
2019-02-17 22:00:00 8.1 3 Norte 7 Sudoeste 0 946.8 0.7 52
2019-02-17 21:00:00 9.6 4 Sudoeste 8 Sudoeste 0 946.7 0.6 44
2019-02-17 20:00:00 11.3 4 Sudeste 6 Sur 0 946.4 0 39
2019-02-17 19:00:00 14.1 4 Norte 12 Noroeste 0 946.1 -1 33
2019-02-17 18:00:00 16.2 10 Noroeste 17 Noroeste 0 946.1 -1.8 26
2019-02-17 17:00:00 17.1 5 Norte 14 Nordeste 0 946.4 -2.4 24
2019-02-17 16:00:00 17.8 5 Este 19 Nordeste 0 947.1 -2.9 22
2019-02-17 15:00:00 16.6 8 Este 14 Nordeste 0 947.9 -2.7 25
2019-02-17 14:00:00 15.2 5 Este 15 Nordeste 0 948.8 -2 29
2019-02-17 13:00:00 13.1 4 Este 14 Este 0 950 -1.1 32
2019-02-17 12:00:00 10 6 Este 15 Este 0 950.6 -0.3 40
2019-02-17 11:00:00 6.7 6 Este 14 Nordeste 0 950.8 0.2 52
2019-02-17 10:00:00 3.4 6 Este 13 Este 0 951.1 0.9 65
2019-02-17 09:00:00 0.6 6 Este 10 Este 0 950.9 0.7 82
2019-02-17 08:00:00 0.1 4 Este 12 Nordeste 0 950.6 0.5 84
2019-02-17 07:00:00 0.8 7 Este 15 Este 0 950.2 0 82
2019-02-17 06:00:00 1.2 6 Este 13 Este 0 950.2 -0.3 81
2019-02-17 05:00:00 1.6 5 Nordeste 11 Este 0 950.1 -0.7 80
2019-02-17 04:00:00 2.6 6 Este 15 Nordeste 0 950.2 -0.8 75
2019-02-17 03:00:00 3.6 9 Nordeste 14 Nordeste 0 950.5 -0.4 70
2019-02-17 02:00:00 4.5 8 Nordeste 17 Este 0 950.8 0 66
2019-02-17 01:00:00 5.6 8 Nordeste 19 Nordeste 0 951 0.6 59
2019-02-17 00:00:00 6.6 9 Este 19 Nordeste 0 950.9 0.9 51
2019-02-16 23:00:00 7.4 11 Este 21 Nordeste 0 950.8 1.5 50
2019-02-16 22:00:00 8.4 10 Nordeste 21 Este 0 950.4 1.6 49
2019-02-16 21:00:00 9.7 10 Nordeste 17 Este 0 950 1.4 51
2019-02-16 20:00:00 12.3 6 Norte 13 Norte 0 949.3 0.3 45
2019-02-16 19:00:00 14.7 6 Norte 13 Norte 0 948.8 -0.8 41
2019-02-16 18:00:00 16.8 5 Nordeste 17 Nordeste 0 948.6 -1.9 35
2019-02-16 17:00:00 17 11 Este 18 Este 0 949 -2.3 31
2019-02-16 16:00:00 16.7 13 Este 21 Este 0 949.6 -2.5 36
2019-02-16 15:00:00 15.8 10 Este 22 Nordeste 0 950.5 -2.5 40
2019-02-16 14:00:00 14.1 12 Este 23 Nordeste 0 951.3 -1.6 50
2019-02-16 13:00:00 11.8 12 Nordeste 26 Nordeste 0 952.1 -0.6 60
2019-02-16 12:00:00 9.6 15 Nordeste 32 Nordeste 0 953 0.9 69
2019-02-16 11:00:00 7.5 18 Nordeste 32 Nordeste 0 952.9 1.4 78
2019-02-16 10:00:00 6.1 16 Nordeste 36 Nordeste 0 952.7 1.5 86
2019-02-16 09:00:00 4.2 11 Este 21 Nordeste 0 952.1 1.2 95
2019-02-16 08:00:00 3.8 9 Nordeste 20 Nordeste 0 951.5 0.7 95
2019-02-16 07:00:00 3.9 10 Nordeste 18 Nordeste 0 951.2 0.2 95
2019-02-16 06:00:00 4 8 Nordeste 19 Nordeste 0 950.9 -0.3 95
2019-02-16 05:00:00 4.2 8 Nordeste 17 Nordeste 0 950.8 -0.4 94
2019-02-16 04:00:00 4.3 6 Nordeste 16 Este 0 951 -0.2 92
2019-02-16 03:00:00 4.7 9 Nordeste 16 Nordeste 0 951.2 -0.1 87
2019-02-16 02:00:00 5.4 9 Nordeste 18 Nordeste 0 951.2 -0.2 84
2019-02-16 01:00:00 6.1 10 Nordeste 18 Este 0 951.2 0 79
2019-02-16 00:00:00 6.4 8 Nordeste 14 Este 0 951.3 0.3 75
2019-02-15 23:00:00 7.1 6 Nordeste 13 Nordeste 0 951.4 0 71
2019-02-15 22:00:00 7.8 4 Nordeste 17 Nordeste 0 951.2 0.1 70
2019-02-15 21:00:00 8.8 5 Nordeste 9 Nordeste 0 951 0.1 67
2019-02-15 20:00:00 10.5 5 Nordeste 14 Este 0 951.4 0.2 60
2019-02-15 19:00:00 12.8 9 Este 23 Este 0 951.1 -0.5 52
2019-02-15 18:00:00 14.8 12 Este 24 Este 0 950.9 -1.5 46
2019-02-15 17:00:00 15.5 12 Nordeste 24 Nordeste 0 951.2 -2 46
2019-02-15 16:00:00 15.5 11 Nordeste 22 Nordeste 0 951.6 -2.8 51
2019-02-15 15:00:00 14.5 11 Nordeste 24 Nordeste 0 952.4 -2.6 53
2019-02-15 14:00:00 12.8 10 Nordeste 21 Nordeste 0 953.2 -1.8 60
2019-02-15 13:00:00 10.6 12 Este 27 Nordeste 0 954.4 -0.7 69
2019-02-15 12:00:00 7.5 15 Este 26 Este 0 955 0.2 83
2019-02-15 11:00:00 5.8 14 Este 25 Este 0 955 0.6 92
2019-02-15 10:00:00 4.9 9 Nordeste 23 Nordeste 0 955.1 0.5 97
2019-02-15 09:00:00 4.5 11 Nordeste 24 Nordeste 0 954.8 0.5 99
2019-02-15 08:00:00 4.1 12 Este 26 Este 0 954.4 0 99
2019-02-15 07:00:00 3.9 13 Este 22 Nordeste 0 954.6 0.2 99
2019-02-15 06:00:00 2.8 9 Este 20 Nordeste 0 954.3 -0.2 98
2019-02-15 05:00:00 2.6 5 Este 10 Este 0 954.4 -0.2 93
2019-02-15 04:00:00 3.2 6 Este 12 Este 0 954.4 -0.4 90
2019-02-15 03:00:00 3.8 8 Este 12 Este 0 954.5 -0.2 87
2019-02-15 02:00:00 4.6 6 Este 11 Este 0 954.6 0 85
2019-02-15 01:00:00 5.6 8 Este 17 Nordeste 0 954.8 0.3 81
2019-02-15 00:00:00 6.4 9 Este 16 Nordeste 0 954.7 0.5 77
2019-02-14 23:00:00 7.3 9 Nordeste 15 Este 0 954.6 0.5 71
2019-02-14 22:00:00 8.2 5 Este 11 Nordeste 0 954.5 0.6 65
2019-02-14 21:00:00 9.8 6 Nordeste 11 Nordeste 0 954.2 0.5 58
2019-02-14 20:00:00 11.4 4 Nordeste 7 Nordeste 0 954.1 0.2 55
2019-02-14 19:00:00 13.8 6 Nordeste 12 Nordeste 0 953.9 -0.3 47
2019-02-14 18:00:00 15.4 8 Este 18 Este 0 953.7 -1 39
2019-02-14 17:00:00 16.1 8 Nordeste 18 Este 0 953.9 -1.6 40
2019-02-14 16:00:00 16.2 10 Este 18 Este 0 954.2 -2.2 40
2019-02-14 15:00:00 15.6 9 Este 22 Este 0 954.7 -2.3 39
2019-02-14 14:00:00 14.1 11 Este 20 Nordeste 0 955.5 -1.6 42
2019-02-14 13:00:00 12.2 9 Nordeste 23 Nordeste 0 956.4 -0.6 54
2019-02-14 12:00:00 9.7 12 Nordeste 27 Nordeste 0 957 0.3 64
2019-02-14 11:00:00 7.4 14 Nordeste 26 Este 0 957.1 0.8 72
2019-02-14 10:00:00 5.2 14 Nordeste 26 Nordeste 0 957 0.9 82
2019-02-14 09:00:00 2.7 10 Nordeste 22 Nordeste 0 956.7 0.9 92
2019-02-14 08:00:00 2.1 8 Este 18 Nordeste 0 956.3 0.7 93
2019-02-14 07:00:00 2.3 9 Nordeste 18 Este 0 956.1 0.6 94
2019-02-14 06:00:00 2.1 8 Nordeste 17 Nordeste 0 955.8 0.2 89
2019-02-14 05:00:00 2.4 8 Este 15 Nordeste 0 955.6 0 83
2019-02-14 04:00:00 3 8 Este 13 Nordeste 0 955.5 0 78
2019-02-14 03:00:00 3.5 7 Nordeste 13 Nordeste 0 955.6 0.2 73
2019-02-14 02:00:00 4.3 3 Este 11 Este 0 955.6 0.3 64
2019-02-14 01:00:00 5.5 6 Este 11 Este 0 955.5 0.6 58
2019-02-14 00:00:00 6.7 8 Este 10 Este 0 955.4 0.6 52
2019-02-13 23:00:00 7.5 4 Este 13 Nordeste 0 955.3 0.8 48
2019-02-13 22:00:00 8.3 5 Nordeste 14 Nordeste 0 954.9 0.6 48
2019-02-13 21:00:00 9.1 4 Norte 7 Noroeste 0 954.8 0.7 68
2019-02-13 20:00:00 10.6 3 Norte 6 Norte 0 954.5 0.1 64
2019-02-13 19:00:00 12.7 4 Norte 11 Nordeste 0 954.3 -0.2 57
2019-02-13 18:00:00 14.2 5 Nordeste 15 Nordeste 0 954.1 -0.9 52
2019-02-13 17:00:00 14.8 7 Nordeste 17 Este 0 954.4 -1.3 50
2019-02-13 16:00:00 14.4 6 Nordeste 17 Nordeste 0 954.5 -2.1 54
2019-02-13 15:00:00 12.8 8 Nordeste 16 Nordeste 0 955 -2 61
2019-02-13 14:00:00 10.5 6 Nordeste 14 Este 0 955.7 -1.2 73
2019-02-13 13:00:00 7.4 5 Nordeste 18 Este 0 956.6 -0.2 85
2019-02-13 12:00:00 4.9 10 Este 17 Este 0 957 0.7 94
2019-02-13 11:00:00 3 9 Este 16 Nordeste 0 956.9 0.9 97
2019-02-13 10:00:00 2.4 8 Nordeste 13 Nordeste 0 956.8 1 92
2019-02-13 09:00:00 2 6 Este 11 Este 0 956.3 0.6 95
2019-02-13 08:00:00 1.7 5 Este 7 Este 0 956 0.2 94
2019-02-13 07:00:00 2.4 4 Este 9 Este 0 955.8 -0.1 92
2019-02-13 06:00:00 2.7 4 Este 7 Este 0 955.7 -0.4 89
2019-02-13 05:00:00 2.9 4 Este 8 Este 0 955.8 -0.5 88
2019-02-13 04:00:00 3.6 5 Nordeste 8 Nordeste 0 955.9 -0.3 86
2019-02-13 03:00:00 4.2 4 Nordeste 7 Nordeste 0 956.1 -0.4 85
2019-02-13 02:00:00 4.5 4 Este 9 Nordeste 0 956.3 -0.2 81
2019-02-13 01:00:00 5.2 5 Nordeste 9 Nordeste 0 956.2 -0.3 76
2019-02-13 00:00:00 5.9 3 Este 6 Nordeste 0 956.5 0.3 75
2019-02-12 23:00:00 6.6 -- -- -- -- 0 956.5 0.5 73
2019-02-12 22:00:00 7.8 0 Calma 4 Noroeste 0 956.5 0.9 68
2019-02-12 21:00:00 9 0 Calma 5 Norte 0 956.2 0.8 62
2019-02-12 20:00:00 10.6 4 Nordeste 7 Nordeste 0 956 0.7 56
2019-02-12 19:00:00 12.4 3 Nordeste 6 Nordeste 0 955.6 0.2 51
2019-02-12 18:00:00 13.8 4 Nordeste 12 Este 0 955.4 -0.3 46
2019-02-12 17:00:00 14.6 5 Nordeste 12 Nordeste 0 955.3 -1 41
2019-02-12 16:00:00 14.9 6 Este 13 Este 0 955.4 -1.5 42
2019-02-12 15:00:00 14 6 Nordeste 15 Este 0 955.7 -1.7 46
2019-02-12 14:00:00 12.4 8 Nordeste 15 Este 0 956.3 -1.1 56
2019-02-12 13:00:00 10.9 6 Este 18 Nordeste 0 956.9 -0.1 59
2019-02-12 12:00:00 8.7 10 Este 21 Este 0 957.4 0.7 63
2019-02-12 11:00:00 6.3 13 Este 24 Nordeste 0 957.4 1.2 69
2019-02-12 10:00:00 3.6 5 Sudeste 9 Este 0 957 1.2 79
2019-02-12 09:00:00 1.5 5 Este 9 Sudeste 0 956.7 1 83
2019-02-12 08:00:00 1.4 4 Este 7 Sudeste 0 956.2 0.8 83
2019-02-12 07:00:00 1.3 3 Sudeste 5 Este 0 955.8 0.4 83
2019-02-12 06:00:00 2 4 Este 8 Sudeste 0 955.7 -0.2 80
2019-02-12 05:00:00 3 5 Sudeste 9 Este 0 955.4 -0.5 78
2019-02-12 04:00:00 3.7 4 Nordeste 12 Nordeste 0 955.4 -0.3 77
2019-02-12 03:00:00 4.2 3 Nordeste 11 Nordeste 0 955.9 0.3 70
2019-02-12 02:00:00 4.6 4 Nordeste 13 Norte 0 955.9 0.7 68
2019-02-12 01:00:00 5.4 4 Nordeste 13 Norte 0 955.7 0.7 63
2019-02-12 00:00:00 6.3 6 Norte 14 Norte 0 955.6 1.1 60
2019-02-11 23:00:00 7.3 6 Norte 17 Nordeste 0 955.2 1.1 60
2019-02-11 22:00:00 7.7 4 Nordeste 8 Nordeste 0 955 1.4 71
2019-02-11 21:00:00 9.2 0 Calma 6 Norte 0 954.5 1.1 67
2019-02-11 20:00:00 11 4 Este 5 Sudeste 0 954.1 0.9 60
2019-02-11 19:00:00 12.6 4 Este 7 Este 0 953.6 0.5 55
2019-02-11 18:00:00 13.6 5 Nordeste 19 Nordeste 0 953.4 0.1 52
2019-02-11 17:00:00 14.7 9 Este 16 Este 0 953.2 -0.7 50
2019-02-11 16:00:00 14.8 4 Norte 12 Nordeste 0 953.1 -1.1 48
2019-02-11 15:00:00 14.8 6 Este 12 Nordeste 0 953.3 -1.1 51
2019-02-11 14:00:00 13.9 5 Este 12 Este 0 953.9 -0.4 58
2019-02-11 13:00:00 13.1 6 Este 13 Nordeste 0 954.2 0.3 63
2019-02-11 12:00:00 11.6 6 Nordeste 15 Norte 0 954.4 1.2 70
2019-02-11 11:00:00 9.8 5 Nordeste 11 Norte 0 954.3 1.6 81
2019-02-11 10:00:00 9.5 4 Norte 13 Nordeste 0 953.9 1.5 94
2019-02-11 09:00:00 8.6 3 Sudoeste 8 Oeste 0 953.2 1.3 95
2019-02-11 08:00:00 9.2 5 Noroeste 10 Sudoeste 0 952.7 0.6 95
2019-02-11 07:00:00 9.7 4 Oeste 10 Oeste 0 952.4 0.1 95
2019-02-11 06:00:00 9.6 4 Sudoeste 13 Sudoeste 0 951.9 -0.3 95
2019-02-11 05:00:00 10 5 Sudoeste 11 Oeste 0.4 952.1 0.3 95
2019-02-11 04:00:00 10 4 Sudoeste 14 Oeste 0 952.3 0.2 94
2019-02-11 03:00:00 10 5 Oeste 23 Sudoeste 0 952.2 -0.2 93
2019-02-11 02:00:00 10.1 10 Sudoeste 22 Sudoeste 0 951.8 -0.4 92
2019-02-11 01:00:00 10.5 8 Oeste 22 Sudoeste 0 952.1 0 86
2019-02-11 00:00:00 10.9 8 Oeste 23 Oeste 0 952.4 0.4 82
2019-02-10 23:00:00 11.1 13 Oeste 24 Sudoeste 0 952.2 0.1 79
2019-02-10 22:00:00 11.1 9 Sudoeste 22 Oeste 0 952.1 0.1 77
2019-02-10 21:00:00 11.2 10 Sudoeste 22 Oeste 0 952 0.4 77
2019-02-10 20:00:00 11.3 8 Sudoeste 21 Oeste 0 952.1 0.7 75
2019-02-10 19:00:00 11.5 11 Oeste 22 Oeste 0 952 0.5 73
2019-02-10 18:00:00 12 9 Oeste 32 Noroeste 0 951.6 0.1 69
2019-02-10 17:00:00 12 14 Oeste 29 Noroeste 0 951.4 -0.4 69
2019-02-10 16:00:00 12.3 12 Oeste 28 Oeste 0 951.5 -0.7 67
2019-02-10 15:00:00 12.4 11 Oeste 25 Oeste 0 951.5 -0.9 65
2019-02-10 14:00:00 12.3 12 Oeste 29 Noroeste 0 951.8 -0.4 66
2019-02-10 13:00:00 12.1 13 Oeste 27 Sudoeste 0 952.2 -0.1 66
2019-02-10 12:00:00 10.6 13 Oeste 28 Oeste 0 952.4 1 74
2019-02-10 11:00:00 8.9 5 Oeste 19 Oeste 0 952.2 1.7 82
2019-02-10 10:00:00 7.5 8 Oeste 16 Sudoeste 0 952.3 2.3 87
2019-02-10 09:00:00 6 9 Oeste 14 Oeste 0 951.4 1.8 92
2019-02-10 08:00:00 6 8 Oeste 15 Oeste 0 950.5 1 91
2019-02-10 07:00:00 6.5 7 Sudoeste 15 Sudoeste 0 950 0.5 90
2019-02-10 06:00:00 6.4 8 Sudoeste 15 Oeste 0 949.6 -0.1 89
2019-02-10 05:00:00 6.9 6 Sudoeste 16 Sudoeste 0 949.5 -0.3 86
2019-02-10 04:00:00 6.3 6 Sudoeste 13 Sudoeste 0 949.5 -0.5 88
2019-02-10 03:00:00 5.6 4 Sudoeste 13 Oeste 0 949.7 -0.4 83
2019-02-10 02:00:00 6.8 8 Sudoeste 13 Sudoeste 0 949.8 -0.3 82
2019-02-10 01:00:00 6.8 4 Sudoeste 8 Sudoeste 0 950 0.2 78
2019-02-10 00:00:00 7.3 4 Sudoeste 6 Sudoeste 0 950.1 0.8 76
2019-02-09 23:00:00 8.4 4 Sudoeste 10 Sudoeste 0 950.1 1 71
2019-02-09 22:00:00 9.5 5 Oeste 11 Sudoeste 0 949.8 1.1 66
2019-02-09 21:00:00 9.9 4 Sudoeste 8 Oeste 0 949.3 0.8 65
2019-02-09 20:00:00 11.3 2 Oeste 16 Noroeste 0 949.1 0.5 58
2019-02-09 19:00:00 12.9 8 Noroeste 17 Noroeste 0 948.7 0 54
2019-02-09 18:00:00 14.9 7 Oeste 21 Noroeste 0 948.5 -0.6 44
2019-02-09 17:00:00 16 8 Oeste 15 Noroeste 0 948.6 -1.2 45
2019-02-09 16:00:00 16.6 7 Oeste 14 Noroeste 0 948.7 -1.9 42
2019-02-09 15:00:00 16.1 6 Oeste 16 Sudoeste 0 949.1 -2 46
2019-02-09 14:00:00 15.6 4 Noroeste 15 Noroeste 0 949.8 -1.4 50
2019-02-09 13:00:00 13.3 4 Oeste 9 Oeste 0 950.6 -0.3 59
2019-02-09 12:00:00 11.5 3 Sudoeste 6 Oeste 0 951.1 0.6 64
2019-02-09 11:00:00 7.6 2 Noroeste 6 Noroeste 0 951.2 1.1 78
2019-02-09 10:00:00 3.3 2 Este 5 Norte 0 950.9 1.1 94
2019-02-09 09:00:00 0.6 0 Calma 4 Nordeste 0 950.5 0.8 93
2019-02-09 08:00:00 0.6 2 Este 4 Sudeste 0 950.1 0.2 90
2019-02-09 07:00:00 1.3 0 Calma 5 Noroeste 0 949.8 -0.2 88
2019-02-09 06:00:00 2.2 3 Sur 8 Sudeste 0 949.7 -0.1 90
2019-02-09 05:00:00 2.7 2 Este 4 Este 0 949.9 0.1 85
2019-02-09 04:00:00 3.9 2 Nordeste 9 Oeste 0 950 -0.1 80
2019-02-09 03:00:00 5.3 4 Oeste 10 Sudoeste 0 949.8 -0.6 77
2019-02-09 02:00:00 7 4 Sudoeste 12 Sudoeste 0 949.8 -0.3 72
2019-02-09 01:00:00 6.9 5 Sudoeste 9 Sudoeste 0 950.1 0.4 71
2019-02-09 00:00:00 6.7 4 Sudoeste 9 Sudoeste 0 950.4 1 72
2019-02-08 23:00:00 8.2 3 Oeste 6 Sudoeste 0 950.1 1.3 66
2019-02-08 22:00:00 9.1 3 Oeste 9 Sudoeste 0 949.7 1.4 63
2019-02-08 21:00:00 10.6 3 Noroeste 11 Oeste 0 949.4 1.1 54
2019-02-08 20:00:00 12.1 5 Oeste 13 Oeste 0 948.8 0.2 44
2019-02-08 19:00:00 13.7 4 Oeste 13 Oeste 0 948.3 -0.3 35
2019-02-08 18:00:00 15.6 7 Oeste 19 Oeste 0 948.3 -0.6 28
2019-02-08 17:00:00 16.7 9 Oeste 24 Oeste 0 948.6 -0.8 22
2019-02-08 16:00:00 17.7 11 Oeste 21 Sudoeste 0 948.6 -1.6 26
2019-02-08 15:00:00 17.3 11 Noroeste 20 Noroeste 0 948.9 -1.6 28
2019-02-08 14:00:00 16.4 7 Oeste 13 Oeste 0 949.4 -1.4 34
2019-02-08 13:00:00 13.1 4 Oeste 8 Oeste 0 950.2 -0.5 47
2019-02-08 12:00:00 10.5 0 Calma 7 Este 0 950.5 -- 54
2019-02-08 11:00:00 6.7 2 Este 6 Norte 0 950.8 0.4 67
2019-02-08 10:00:00 3.2 3 Noroeste 5 Norte 0 950.7 0.6 80
2019-02-08 09:00:00 0.8 3 Norte 5 Noroeste 0 -- -- 92
2019-02-08 08:00:00 0.2 0 Calma 5 Sudeste 0 950.4 0.5 89
2019-02-08 07:00:00 0.3 0 Calma 4 Nordeste 0 950.1 0.1 87
2019-02-08 06:00:00 0.9 0 Calma 3 Nordeste 0 949.9 -0.5 85
2019-02-08 05:00:00 1.3 0 Calma 3 Nordeste 0 949.9 -1 82
2019-02-08 04:00:00 2.2 2 Este 6 Sudeste 0 950 -0.8 80
2019-02-08 03:00:00 3 3 Sudeste 6 Sudeste 0 950.4 -0.2 77
2019-02-08 02:00:00 3.7 2 Norte 8 Nordeste 0 950.9 0.2 72
2019-02-08 01:00:00 5.3 4 Sudoeste 7 Sudoeste 0 950.8 0.7 68
2019-02-08 00:00:00 5.9 5 Sudoeste 7 Sudoeste 0 950.6 0.7 60
2019-02-07 23:00:00 8.1 0 Calma 8 Sudoeste 0 950.7 1 51
2019-02-07 22:00:00 9.8 5 Oeste 13 Oeste 0 950.1 0.9 45
2019-02-07 21:00:00 10.6 5 Oeste 10 Oeste 0 949.9 0.6 39
2019-02-07 20:00:00 12.1 4 Oeste 14 Sudoeste 0 949.7 0.5 33
2019-02-07 19:00:00 14.1 8 Sudoeste 17 Oeste 0 949.2 0 31
2019-02-07 18:00:00 15.8 6 Oeste 15 Oeste 0 949.3 -0.3 31
2019-02-07 17:00:00 16.7 4 Noroeste 16 Oeste 0 949.2 -1.1 30
2019-02-07 16:00:00 17.5 7 Oeste 14 Sudoeste 0 949.2 -1.7 24
2019-02-07 15:00:00 17.5 5 Sur 11 Sur 0 949.6 -1.8 34
2019-02-07 14:00:00 16.8 3 Oeste 10 Oeste 0 950.3 -1 41
2019-02-07 13:00:00 15.6 4 Oeste 9 Oeste 0 950.9 -0.3 49
2019-02-07 12:00:00 13 4 Oeste 10 Oeste 0 951.4 0.3 60
2019-02-07 11:00:00 9.4 5 Oeste 8 Oeste 0 951.3 0.9 73
2019-02-07 10:00:00 4.6 0 Calma 4 Sudeste 0 951.2 1 98
2019-02-07 09:00:00 1.6 0 Calma 3 Este 0 951.1 1 96
2019-02-07 08:00:00 1.5 0 Calma 3 Noroeste 0 950.4 0.3 93
2019-02-07 07:00:00 2 0 Calma 3 Este 0 950.2 -0.5 93
2019-02-07 06:00:00 2.5 0 Calma 3 Nordeste 0 950.1 -0.5 92
2019-02-07 05:00:00 2.7 3 Sudoeste 5 Sudoeste 0 950.1 -0.8 91
2019-02-07 04:00:00 3.3 4 Sudoeste 6 Sudoeste 0 950.7 -0.4 89
2019-02-07 03:00:00 4.1 2 Sur 6 Sudoeste 0 950.6 -0.3 86
2019-02-07 02:00:00 5.2 4 Sudoeste 5 Sudoeste 0 950.9 0 82
2019-02-07 01:00:00 6.9 5 Sudoeste 9 Oeste 0 951.1 0.3 81
2019-02-07 00:00:00 7.1 3 Sudoeste 6 Sudoeste 0 950.9 0.1 75
2019-02-06 23:00:00 8.7 3 Sudoeste 8 Sudoeste 0 950.9 0.2 70
2019-02-06 22:00:00 10.2 5 Sudoeste 9 Oeste 0 950.8 0.2 65
2019-02-06 21:00:00 11.1 4 Sudoeste 8 Oeste 0 950.8 0.5 61
2019-02-06 20:00:00 12.5 4 Oeste 10 Oeste 0 950.7 0.2 56
2019-02-06 19:00:00 14.3 4 Oeste 11 Sudoeste 0 950.6 -0.2 49
2019-02-06 18:00:00 15.9 6 Oeste 14 Sudoeste 0 950.3 -1.1 43
2019-02-06 17:00:00 16.7 6 Oeste 12 Sudoeste 0 950.5 -1.6 42
2019-02-06 16:00:00 16.7 4 Oeste 12 Noroeste 0 950.8 -2.3 39
2019-02-06 15:00:00 17.1 4 Noroeste 10 Oeste 0 951.4 -2.4 40
2019-02-06 14:00:00 15.9 5 Este 8 Sudeste 0 952.1 -2 44
2019-02-06 13:00:00 13.5 3 Norte 8 Sudeste 0 953.1 -1.1 49
2019-02-06 12:00:00 10.5 3 Este 6 Este 0 953.8 -0.1 61
2019-02-06 11:00:00 7.3 2 Este 5 Norte 0 954.1 0.5 73
2019-02-06 10:00:00 3 2 Norte 5 Norte 0 954.2 0.7 94
2019-02-06 09:00:00 0.5 0 Calma 3 Noroeste 0 953.9 0.4 96
2019-02-06 08:00:00 0.4 2 Norte 7 Nordeste 0 953.6 0.2 95
2019-02-06 07:00:00 0.3 3 Sudeste 5 Este 0 953.5 -0.4 92
2019-02-06 06:00:00 0.7 0 Calma 4 Sudeste 0 953.5 -0.7 90
2019-02-06 05:00:00 1.3 2 Sudeste 3 Sudeste 0 953.4 -1.1 91
2019-02-06 04:00:00 1.8 0 Calma 3 Este 0 953.9 -0.8 89
2019-02-06 03:00:00 2.4 0 Calma 4 Este 0 954.2 -0.4 88
2019-02-06 02:00:00 3.1 -- -- -- -- 0 954.5 -0.1 86
2019-02-06 01:00:00 3.8 3 Este 4 Este 0 954.7 0.1 84
2019-02-06 00:00:00 4.5 0 Calma 3 Noroeste 0 954.6 0.3 82
2019-02-05 23:00:00 5.5 0 Calma 4 Noroeste 0 954.6 0.4 78
2019-02-05 22:00:00 6.6 2 Sudoeste 3 Sudeste 0 954.6 0.6 74
2019-02-05 21:00:00 8 0 Calma 4 Norte 0 954.3 0.5 68
2019-02-05 20:00:00 9.8 3 Sur 5 Sur 0 954.2 0 61
2019-02-05 19:00:00 12 3 Sur 7 Sudeste 0 954 -0.3 53
2019-02-05 18:00:00 13.7 4 Sur 7 Sur 0 953.8 -0.9 45
2019-02-05 17:00:00 14.4 2 Sudeste 7 Este 0 954.2 -1.3 41
2019-02-05 16:00:00 14.8 4 Noroeste 10 Este 0 954.3 -2 40
2019-02-05 15:00:00 14.6 3 Este 13 Este 0 954.7 -2 42
2019-02-05 14:00:00 14.2 3 Sudeste 8 Sudeste 0 955.5 -1.2 38
2019-02-05 13:00:00 12.2 3 Sudeste 8 Este 0 956.3 0 42
2019-02-05 12:00:00 9 5 Este 9 Este 0 956.7 0.8 52
2019-02-05 11:00:00 5.1 4 Nordeste 6 Nordeste 0 956.7 1.3 72
2019-02-05 10:00:00 1.5 0 Calma 5 Noroeste 0 956.3 1.2 84
2019-02-05 09:00:00 -0.5 0 Calma 6 Nordeste 0 955.9 0.9 92
2019-02-05 08:00:00 -1.1 3 Nordeste 5 Nordeste 0 955.4 0.6 90
2019-02-05 07:00:00 -0.6 0 Calma 6 Sudeste 0 955.1 0.1 88
2019-02-05 06:00:00 -0.2 4 Sudeste 6 Sudeste 0 955 -0.2 89
2019-02-05 05:00:00 0.2 2 Sudeste 5 Noroeste 0 954.8 -0.6 87
2019-02-05 04:00:00 0.6 4 Norte 7 Nordeste 0 955 -0.4 87
2019-02-05 03:00:00 0.9 0 Calma 4 Nordeste 0 955.2 -0.2 84
2019-02-05 02:00:00 1.4 0 Calma 5 Este 0 955.4 0.1 82
2019-02-05 01:00:00 2.1 3 Este 5 Nordeste 0 955.4 0.4 80
2019-02-05 00:00:00 2.7 2 Nordeste 7 Noroeste 0 955.4 0.4 75
2019-02-04 23:00:00 3.5 5 Noroeste 7 Noroeste 0 955.3 0.8 72
2019-02-04 22:00:00 4.6 3 Sudoeste 5 Sur 0 955 0.9 66
2019-02-04 21:00:00 5.9 2 Sudeste 6 Sur 0 955 1 60
2019-02-04 20:00:00 7.5 2 Sudoeste 5 Sudoeste 0 954.5 0.5 55
2019-02-04 19:00:00 9.5 3 Sur 9 Sur 0 954.1 -0.1 46
2019-02-04 18:00:00 11.2 2 Sur 8 Oeste 0 954 -0.6 41
2019-02-04 17:00:00 11.9 4 Oeste 9 Oeste 0 954 -0.9 38
2019-02-04 16:00:00 11.8 3 Oeste 11 Oeste 0 954.2 -1.3 37
2019-02-04 15:00:00 11.4 4 Oeste 10 Noroeste 0 954.6 -1.7 34
2019-02-04 14:00:00 10.4 3 Oeste 9 Este 0 954.9 -1.2 39
2019-02-04 13:00:00 8.8 4 Sudeste 9 Sur 0 955.5 -0.4 44
2019-02-04 12:00:00 6.6 3 Sur 10 Este 0 956.3 0.7 50
2019-02-04 11:00:00 3.2 4 Este 8 Este 0 956.1 0.8 64
2019-02-04 10:00:00 -0.5 3 Este 4 Este 0 955.9 0.4 80
2019-02-04 09:00:00 -2.4 4 Este 8 Sudeste 0 955.6 0.4 85
2019-02-04 08:00:00 -2.2 3 Sudeste 9 Noroeste 0 955.3 0 83
2019-02-04 07:00:00 -2.6 4 Noroeste 8 Noroeste 0 955.5 -0.2 85
2019-02-04 06:00:00 -2.2 2 Sudeste 5 Sudeste 0 955.2 -0.6 84
2019-02-04 05:00:00 -1.7 2 Sudoeste 6 Oeste 0 955.3 -0.3 82
2019-02-04 04:00:00 -0.9 3 Sudoeste 9 Sudoeste 0 955.7 0.2 78
2019-02-04 03:00:00 -0.6 5 Sudeste 8 Sudeste 0 955.8 0.4 77
2019-02-04 02:00:00 0.5 3 Oeste 9 Noroeste 0 955.6 0.5 71
2019-02-04 01:00:00 1.1 4 Noroeste 9 Noroeste 0 955.5 1.3 67
2019-02-04 00:00:00 1.9 4 Noroeste 13 Noroeste 0 955.4 1.7 64
2019-02-03 23:00:00 2.9 7 Noroeste 12 Noroeste 0 955.1 1.9 59
2019-02-03 22:00:00 3.5 4 Noroeste 12 Noroeste 0 954.2 2 59
2019-02-03 21:00:00 4.8 10 Noroeste 20 Noroeste 0 953.7 1.6 51
2019-02-03 20:00:00 5.7 5 Noroeste 15 Noroeste 0 953.2 1.3 47
2019-02-03 19:00:00 6.9 5 Noroeste 17 Noroeste 0 952.2 0.1 42
2019-02-03 18:00:00 8.2 7 Noroeste 19 Noroeste 0 952.1 0.1 36
2019-02-03 17:00:00 9 6 Norte 21 Noroeste 0 951.9 -0.2 33
2019-02-03 16:00:00 9.4 9 Noroeste 21 Noroeste 0 952.1 -0.3 33
2019-02-03 15:00:00 9.4 7 Norte 22 Noroeste 0 952 -0.3 35
2019-02-03 14:00:00 9 8 Noroeste 24 Noroeste 0 952.1 -0.1 36
2019-02-03 13:00:00 8.2 10 Noroeste 23 Noroeste 0 952.4 0.1 37
2019-02-03 12:00:00 6.9 9 Norte 23 Noroeste 0 952.3 0.4 41
2019-02-03 11:00:00 5.6 10 Noroeste 18 Noroeste 0 952.2 1.9 46
2019-02-03 10:00:00 2.3 5 Este 13 Oeste 0 952.3 2.7 66
2019-02-03 09:00:00 -0.2 2 Este 11 Noroeste 0 951.9 2.8 75
2019-02-03 08:00:00 -0.6 4 Norte 10 Noroeste 0 950.3 1.5 78
2019-02-03 07:00:00 -0.8 2 Oeste 6 Sudoeste 0 949.6 1.1 81
2019-02-03 06:00:00 0.2 2 Sudeste 13 Noroeste 0 949.1 0.9 76
2019-02-03 05:00:00 0.9 6 Noroeste 13 Oeste 0 948.8 1.2 72
2019-02-03 04:00:00 1.3 5 Noroeste 12 Noroeste 0 948.5 1.5 71
2019-02-03 03:00:00 1.5 8 Noroeste 14 Oeste 0 948.2 1.7 72
2019-02-03 02:00:00 1.7 5 Noroeste 14 Oeste 0 947.6 1.4 70
2019-02-03 01:00:00 2.3 5 Oeste 15 Oeste 0 947 1.1 65
2019-02-03 00:00:00 2.9 4 Noroeste 16 Oeste 0 946.5 1 60
2019-02-02 23:00:00 3.5 8 Noroeste 17 Noroeste 0 946.2 1.6 58
2019-02-02 22:00:00 4.2 9 Noroeste 15 Noroeste 0 945.9 2.5 54
2019-02-02 21:00:00 5.3 9 Norte 38 Noroeste 0 945.5 3.1 46
2019-02-02 20:00:00 6.1 18 Noroeste 33 Noroeste 0 944.6 3.1 41
2019-02-02 19:00:00 7.1 18 Noroeste 32 Noroeste 0 943.4 2.8 40
2019-02-02 18:00:00 8.1 19 Noroeste 35 Noroeste 0 942.4 2.3 37
2019-02-02 17:00:00 8.3 18 Noroeste 41 Noroeste 0 941.5 2 37
2019-02-02 16:00:00 9.5 18 Noroeste 42 Noroeste 0 940.6 1.3 37
2019-02-02 15:00:00 9.9 21 Noroeste 46 Noroeste 0 940.1 1.3 37
2019-02-02 14:00:00 8.9 19 Noroeste 35 Oeste 0 939.5 1.4 43
2019-02-02 13:00:00 8.7 19 Noroeste 38 Noroeste 0 939.3 2.6 42
2019-02-02 12:00:00 7.7 11 Noroeste 30 Noroeste 0 938.8 3.1 54
2019-02-02 11:00:00 6 12 Oeste 28 Noroeste 0 938.1 4 65
2019-02-02 10:00:00 4 12 Oeste 26 Noroeste 0 936.7 3.2 80
2019-02-02 09:00:00 2.7 8 Oeste 27 Oeste 0 935.7 2.8 86
2019-02-02 08:00:00 2.8 10 Oeste 25 Oeste 0 934.1 1.9 87
2019-02-02 07:00:00 3.2 10 Oeste 27 Oeste 0 933.5 1.4 86
2019-02-02 06:00:00 3.9 9 Oeste 23 Oeste 0 932.9 1.3 85
2019-02-02 05:00:00 4 9 Oeste 26 Sudoeste 0 932.2 1.2 86
2019-02-02 04:00:00 4.2 10 Oeste 27 Oeste 0 932.1 1.7 86
2019-02-02 03:00:00 4 9 Oeste 38 Oeste 0 931.6 2.4 86
2019-02-02 02:00:00 4.2 12 Oeste 38 Noroeste 0 931 2.9 85
2019-02-02 01:00:00 4.5 15 Oeste 48 Oeste 0 930.4 2.6 82
2019-02-02 00:00:00 4.6 14 Oeste 38 Oeste 0 929.2 2.1 84
2019-02-01 23:00:00 4.5 14 Oeste 40 Oeste 0 928.1 1.6 83
2019-02-01 22:00:00 5.1 17 Oeste 40 Oeste 0 927.8 1.6 80
2019-02-01 21:00:00 5.3 14 Oeste 45 Oeste 0 927.1 1.7 83
2019-02-01 20:00:00 5.5 14 Oeste 40 Oeste 0.2 926.5 1.9 86
2019-02-01 19:00:00 5.7 14 Oeste 40 Sudoeste 0 926.2 1.7 85
2019-02-01 18:00:00 5.9 21 Oeste 54 Noroeste 3.6 925.4 0.3 86
2019-02-01 17:00:00 7 14 Oeste 38 Sudoeste 1.6 924.6 -1.1 89
2019-02-01 16:00:00 8.4 19 Oeste 57 Sudoeste 0.6 924.5 -2.3 81
2019-02-01 15:00:00 11.5 26 Sudoeste 55 Oeste 0 925.1 -1.9 53
2019-02-01 14:00:00 9.6 18 Oeste 53 Oeste 0 925.7 -0.9 70
2019-02-01 13:00:00 9.5 22 Oeste 54 Oeste 0 926.8 0.6 70
2019-02-01 12:00:00 9.6 23 Oeste 56 Oeste 0 927 1.3 64
2019-02-01 11:00:00 8.5 18 Noroeste 37 Noroeste 0 926.6 1.7 71
2019-02-01 10:00:00 7.7 14 Oeste 46 Oeste 0 926.2 1.6 85
2019-02-01 09:00:00 7.9 18 Oeste 49 Oeste 0 925.7 1.6 83
2019-02-01 08:00:00 8.2 10 Oeste 42 Noroeste 0.2 924.9 0.1 92
2019-02-01 07:00:00 9 17 Noroeste 44 Sudoeste 1 924.6 -0.9 94
2019-02-01 06:00:00 10 17 Sudoeste 45 Oeste 1.8 924.1 -2.5 94
2019-02-01 05:00:00 10.4 17 Oeste 42 Oeste 2.6 924.8 -2.7 92
2019-02-01 04:00:00 10.4 18 Sudoeste 37 Sudoeste 1.4 925.5 -2.8 94
2019-02-01 03:00:00 10.4 18 Sudoeste 40 Sudoeste 0.8 926.6 -2.6 93
2019-02-01 02:00:00 10.3 13 Sudoeste 42 Sudoeste 0.8 927.5 -2.6 94
2019-02-01 01:00:00 10.8 16 Sudoeste 36 Sur 0.2 928.3 -2.7 89
2019-02-01 00:00:00 10.9 14 Sudoeste 39 Sur 0 929.2 -2.7 89
2019-01-31 23:00:00 10.7 13 Sudoeste 32 Sudoeste 0.2 930.1 -1.7 91
2019-01-31 22:00:00 10.6 11 Sudoeste 42 Oeste 0 931 -1 89
2019-01-31 21:00:00 11.1 17 Sudoeste 42 Sudoeste 0 931.9 -0.5 81
2019-01-31 20:00:00 11.2 12 Sudoeste 32 Sudoeste 0 931.8 -1.3 88
2019-01-31 19:00:00 11.5 15 Sudoeste 30 Sudoeste 0 932 -1.4 84
2019-01-31 18:00:00 11.3 12 Sudoeste 38 Sudoeste 0 932.4 -0.9 89
2019-01-31 17:00:00 12 19 Sudoeste 43 Oeste 0 933.1 -0.8 87
2019-01-31 16:00:00 12.1 17 Sudoeste 41 Sudoeste 0.2 933.4 -1.2 87
2019-01-31 15:00:00 13.1 22 Oeste 51 Sudoeste 0 933.3 -2 83
2019-01-31 14:00:00 13.1 19 Oeste 51 Sudoeste 0 933.9 -1.3 77
2019-01-31 13:00:00 12 21 Oeste 44 Oeste 0.2 934.6 -0.5 84
2019-01-31 12:00:00 11.8 22 Oeste 44 Oeste 0 935.3 0.9 84
2019-01-31 11:00:00 11.1 22 Oeste 42 Sudoeste 0 935.2 1 85
2019-01-31 10:00:00 10.5 17 Oeste 38 Oeste 0 935.1 1.2 87
2019-01-31 09:00:00 10 12 Oeste 39 Sudoeste 0 934.4 -0.1 95
2019-01-31 08:00:00 10.1 19 Oeste 38 Sudoeste 0.2 934.2 -0.6 94
2019-01-31 07:00:00 10 19 Sudoeste 36 Oeste 0 933.9 -1.3 94
2019-01-31 06:00:00 9.8 15 Sudoeste 33 Oeste 0 934.5 -1.1 95
2019-01-31 05:00:00 9.5 16 Oeste 32 Sudoeste 0 934.8 -1.2 95
2019-01-31 04:00:00 9.2 14 Sudoeste 31 Oeste 0.2 935.2 -1.1 94
2019-01-31 03:00:00 8.9 15 Sudoeste 35 Oeste 0 935.6 -1.2 95
2019-01-31 02:00:00 8.9 15 Sudoeste 35 Sudoeste 0 936 -1.2 94
2019-01-31 01:00:00 8.9 13 Sudoeste 33 Sudoeste 0.2 936.3 -1.4 92
2019-01-31 00:00:00 9 13 Sudoeste 41 Sudoeste 0 936.8 -1.6 90
2019-01-30 23:00:00 8.6 18 Sudoeste 33 Sudoeste 0.2 937.2 -1.9 93
2019-01-30 22:00:00 8 11 Sudoeste 23 Sudoeste 0 937.7 -1.4 94
2019-01-30 21:00:00 7.6 9 Sudoeste 25 Sudoeste 0.4 938.4 -0.8 93
2019-01-30 20:00:00 7.9 12 Sudoeste 28 Sudoeste 0 939.1 -0.4 88
2019-01-30 19:00:00 8.3 10 Oeste 39 Oeste 0 939.1 -0.4 83
2019-01-30 18:00:00 9.2 17 Oeste 33 Sudoeste 0 939.2 -0.9 67
2019-01-30 17:00:00 10.2 15 Oeste 35 Noroeste 0 939.5 -1.4 59
2019-01-30 16:00:00 11 15 Oeste 32 Sudoeste 0 939.5 -2.1 46
2019-01-30 15:00:00 11.3 12 Oeste 35 Noroeste 0 940.1 -2.2 46
2019-01-30 14:00:00 10 16 Noroeste 32 Oeste 0 940.9 -1.4 49
2019-01-30 13:00:00 9.8 13 Oeste 27 Noroeste 0 941.6 -0.1 58
2019-01-30 12:00:00 8.4 9 Oeste 26 Noroeste 0 942.3 1.2 64
2019-01-30 11:00:00 7.7 12 Oeste 28 Oeste 0 942.3 1.4 71
2019-01-30 10:00:00 6.1 10 Oeste 30 Sudoeste 0 941.7 1.6 80
2019-01-30 09:00:00 5.3 10 Sudoeste 26 Oeste 0 941.1 0.9 84
2019-01-30 08:00:00 6 7 Sudoeste 24 Noroeste 0 940.9 0.4 83
2019-01-30 07:00:00 6.7 13 Oeste 27 Oeste 0 940.1 -0.7 83
2019-01-30 06:00:00 7.3 9 Oeste 24 Oeste 0 940.2 -0.6 82
2019-01-30 05:00:00 7.8 8 Oeste 26 Oeste 0 940.5 -0.5 82
2019-01-30 04:00:00 8.1 10 Oeste 32 Oeste 0 940.8 -0.6 82
2019-01-30 03:00:00 8.1 12 Oeste 23 Oeste 0 940.8 -1 84
2019-01-30 02:00:00 8 9 Oeste 27 Sudoeste 0 941 -1.5 88
2019-01-30 01:00:00 8.3 14 Oeste 26 Oeste 0 941.4 -0.8 88
2019-01-30 00:00:00 8.8 9 Oeste 35 Oeste 0 941.8 0 86
2019-01-29 23:00:00 9.2 11 Oeste 27 Oeste 0 942.5 1.2 85
2019-01-29 22:00:00 9.3 13 Oeste 36 Oeste 0 942.2 1 85
2019-01-29 21:00:00 9.3 17 Oeste 40 Oeste 0 941.8 0.3 83
2019-01-29 20:00:00 9.4 21 Oeste 39 Sudoeste 0 941.3 -0.8 81
2019-01-29 19:00:00 9.6 19 Oeste 37 Oeste 0 941.2 -0.9 78
2019-01-29 18:00:00 9.9 10 Oeste 45 Oeste 0 941.5 -1.4 74
2019-01-29 17:00:00 10.1 18 Oeste 46 Oeste 0 942.1 -1.2 75
2019-01-29 16:00:00 9.7 16 Oeste 40 Oeste 0 942.1 -1.4 77
2019-01-29 15:00:00 9.2 16 Oeste 39 Sudoeste 0 942.9 -2.5 81
2019-01-29 14:00:00 10.3 13 Oeste 44 Noroeste 0 943.3 -1.8 67
2019-01-29 13:00:00 11 14 Oeste 33 Oeste 0 943.5 -1.2 63
2019-01-29 12:00:00 8.1 11 Oeste 33 Sudoeste 0 945.4 0.4 75
2019-01-29 11:00:00 7 14 Oeste 29 Sudoeste 0 945.1 0 81
2019-01-29 10:00:00 6.5 11 Sudoeste 21 Oeste 0 944.7 -0.3 84
2019-01-29 09:00:00 6.4 6 Oeste 13 Sudoeste 0 945 -0.1 88
2019-01-29 08:00:00 6.3 8 Oeste 17 Oeste 0 945.1 0 89
2019-01-29 07:00:00 6.4 6 Oeste 14 Noroeste 0 945 -0.4 89
2019-01-29 06:00:00 6.4 4 Noroeste 23 Noroeste 0 945.1 -0.3 90
2019-01-29 05:00:00 6.5 14 Oeste 30 Oeste 0 945.1 -0.4 90
2019-01-29 04:00:00 6.5 8 Oeste 26 Oeste 0 945.4 -0.1 91
2019-01-29 03:00:00 5.9 12 Oeste 22 Oeste 0 945.4 -0.2 94
2019-01-29 02:00:00 5.9 12 Sudoeste 22 Oeste 0 945.5 -0.7 92
2019-01-29 01:00:00 6.3 9 Sudoeste 19 Sudoeste 0 945.5 -0.4 88
2019-01-29 00:00:00 6.5 10 Oeste 21 Sudoeste 0 945.6 0.1 87
2019-01-28 23:00:00 6.9 4 Sudoeste 13 Sudoeste 0 946.2 0.6 83
2019-01-28 22:00:00 7.6 4 Sudoeste 15 Oeste 0 945.9 0.8 78
2019-01-28 21:00:00 8.7 6 Noroeste 27 Oeste 0 945.5 1.1 74
2019-01-28 20:00:00 9.8 18 Noroeste 37 Noroeste 0 945.6 1.1 69
2019-01-28 19:00:00 11 18 Noroeste 40 Oeste 0 945.1 0.5 64
2019-01-28 18:00:00 11.8 10 Oeste 27 Noroeste 0 944.4 -0.6 61
2019-01-28 17:00:00 12.2 9 Oeste 31 Oeste 0 944.5 -1.1 57
2019-01-28 16:00:00 12.1 14 Oeste 34 Noroeste 0 944.6 -1.4 55
2019-01-28 15:00:00 11.8 16 Oeste 37 Noroeste 0 945 -1.9 54
2019-01-28 14:00:00 11.4 18 Oeste 36 Oeste 0 945.6 -1 55
2019-01-28 13:00:00 11 10 Oeste 22 Sudoeste 0 946 0.1 54
2019-01-28 12:00:00 8.5 9 Oeste 28 Oeste 0 946.9 0.8 60
2019-01-28 11:00:00 6 15 Noroeste 30 Noroeste 0 946.6 0 69
2019-01-28 10:00:00 3.8 12 Sudoeste 25 Sudoeste 0 945.9 -0.8 77
2019-01-28 09:00:00 2.2 10 Sudoeste 19 Sudoeste 0 946.1 -0.2 84
2019-01-28 08:00:00 2.4 7 Sudoeste 18 Oeste 0 946.6 0.9 83
2019-01-28 07:00:00 2.9 8 Oeste 15 Sudoeste 0 946.7 0.7 82
2019-01-28 06:00:00 2.9 6 Noroeste 17 Oeste 0 946.3 0.2 80
2019-01-28 05:00:00 3.5 7 Oeste 17 Sudoeste 0 945.7 -0.7 79
2019-01-28 04:00:00 3.9 9 Oeste 22 Sudoeste 0 946 -0.1 77
2019-01-28 03:00:00 4 7 Sudoeste 13 Sudoeste 0 946.1 0 77
2019-01-28 02:00:00 4 4 Sudoeste 10 Oeste 0 946.4 0.6 77
2019-01-28 01:00:00 4 6 Sudoeste 9 Oeste 0 946.1 0.7 77
2019-01-28 00:00:00 5 0 Calma 9 Oeste 0 946.1 0.7 74
2019-01-27 23:00:00 5.4 4 Sur 12 Oeste 0 945.8 1 72
2019-01-27 22:00:00 6.8 5 Oeste 13 Oeste 0 945.4 1 68
2019-01-27 21:00:00 7.7 4 Oeste 16 Oeste 0 945.4 1.3 67
2019-01-27 20:00:00 8.8 8 Oeste 17 Oeste 0 944.8 1.1 66
2019-01-27 19:00:00 10.1 8 Oeste 17 Noroeste 0 944.4 1 63
2019-01-27 18:00:00 11.6 11 Noroeste 23 Noroeste 0 944.1 1 53
2019-01-27 17:00:00 12.4 10 Oeste 26 Oeste 0 943.7 0.2 52
2019-01-27 16:00:00 12.4 10 Noroeste 28 Noroeste 0 943.4 -0.7 50
2019-01-27 15:00:00 12.7 10 Noroeste 24 Oeste 0 943.1 -0.9 53
2019-01-27 14:00:00 11.8 10 Oeste 26 Sudoeste 0 943.5 -0.2 61
2019-01-27 13:00:00 10.7 13 Noroeste 27 Oeste 0 944.1 1.2 64
2019-01-27 12:00:00 9.4 11 Oeste 27 Oeste 0 944 1.7 70
2019-01-27 11:00:00 7.6 12 Oeste 24 Oeste 0 943.7 1.7 78
2019-01-27 10:00:00 5.9 9 Oeste 18 Sudoeste 0 942.9 0.6 89
2019-01-27 09:00:00 4.8 9 Sudoeste 16 Oeste 0 942.3 0 89
2019-01-27 08:00:00 5.2 9 Sudoeste 18 Sudoeste 0 942 -1 88
2019-01-27 07:00:00 5.4 5 Noroeste 18 Oeste 0 942.3 -1.2 84
2019-01-27 06:00:00 5.9 10 Sudoeste 20 Sudoeste 0 942.3 -1 80
2019-01-27 05:00:00 5.7 10 Sudoeste 18 Oeste 0 943 -1.1 78
2019-01-27 04:00:00 4.1 2 Oeste 10 Sudoeste 0 943.5 -1.2 80
2019-01-27 03:00:00 5.5 5 Oeste 13 Sudoeste 0 943.3 -1.6 74
2019-01-27 02:00:00 4.9 3 Sur 6 Sur 0 944.1 -1 75
2019-01-27 01:00:00 6.3 3 Sudoeste 8 Sudoeste 0 944.7 -0.6 70
2019-01-27 00:00:00 7.7 5 Sudoeste 13 Oeste 0 944.9 -0.3 65
2019-01-26 23:00:00 8.5 7 Sudoeste 14 Oeste 0 945.1 -0.2 62
2019-01-26 22:00:00 9.6 7 Sudoeste 15 Oeste 0 945.3 0 57
2019-01-26 21:00:00 10.6 9 Sudoeste 17 Oeste 0 945.2 -0.3 53
2019-01-26 20:00:00 11.5 5 Oeste 12 Sudoeste 0 945.3 -0.5 49
2019-01-26 19:00:00 13.1 4 Oeste 11 Oeste 0 945.3 -0.8 45
2019-01-26 18:00:00 14.7 5 Oeste 15 Noroeste 0 945.5 -1.3 40
2019-01-26 17:00:00 15.5 4 Oeste 10 Sur 0 945.8 -1.8 38
2019-01-26 16:00:00 15.7 5 Oeste 11 Oeste 0 946.1 -2.3 37
2019-01-26 15:00:00 15.8 5 Oeste 13 Oeste 0 946.8 -2.1 40
2019-01-26 14:00:00 14.8 4 Oeste 10 Sudoeste 0 947.6 -1.1 42
2019-01-26 13:00:00 12.8 4 Este 7 Sudeste 0 948.4 0 47
2019-01-26 12:00:00 10.4 4 Sudeste 8 Sudeste 0 948.9 0.7 56
2019-01-26 11:00:00 7.3 3 Sudeste 5 Sudeste 0 948.7 0.9 67
2019-01-26 10:00:00 2.3 0 Calma 4 Sudeste 0 948.4 1 87
2019-01-26 09:00:00 0.1 0 Calma 4 Norte 0 948.2 0.5 89
2019-01-26 08:00:00 0.5 0 Calma 6 Sudoeste 0 947.8 0 89
2019-01-26 07:00:00 0.9 0 Calma 4 Norte 0 947.4 -0.4 86
2019-01-26 06:00:00 1.8 3 Noroeste 8 Noroeste 0 947.7 -0.2 84
2019-01-26 05:00:00 2.6 3 Noroeste 6 Sudeste 0 947.8 0 82
2019-01-26 04:00:00 3.3 3 Sudeste 7 Sudeste 0 947.8 -0.3 79
2019-01-26 03:00:00 4.2 3 Sudeste 9 Sudeste 0 947.9 0.3 75
2019-01-26 02:00:00 5.2 5 Sudeste 11 Nordeste 0 947.8 0.2 70
2019-01-26 01:00:00 6.3 3 Nordeste 8 Noroeste 0 948.1 1 66
2019-01-26 00:00:00 7.8 5 Norte 16 Norte 0 947.6 1 59
2019-01-25 23:00:00 8.4 5 Norte 11 Norte 0 947.6 1.3 58
2019-01-25 22:00:00 8 4 Norte 8 Nordeste 0 947.1 1.4 62
2019-01-25 21:00:00 9.8 3 Nordeste 9 Noroeste 0 946.6 1.4 55
2019-01-25 20:00:00 12.3 5 Noroeste 13 Noroeste 0 946.3 1.1 46
2019-01-25 19:00:00 13.7 6 Noroeste 12 Oeste 0 945.7 0.6 41
2019-01-25 18:00:00 15.6 4 Norte 13 Noroeste 0 945.2 -0.2 35
2019-01-25 17:00:00 16.6 10 Noroeste 20 Noroeste 0 945.2 -0.7 32
2019-01-25 16:00:00 16.9 5 Norte 21 Nordeste 0 945.1 -1 36
2019-01-25 15:00:00 16.8 8 Norte 24 Norte 0 945.4 -1.2 39
2019-01-25 14:00:00 16.3 8 Norte 22 Noroeste 0 945.9 -0.4 43
2019-01-25 13:00:00 15.4 9 Norte 21 Noroeste 0 946.1 -0.1 45
2019-01-25 12:00:00 13.1 4 Noroeste 12 Este 0 946.6 0.7 57
2019-01-25 11:00:00 10.4 6 Este 10 Sudeste 0 946.3 1.2 69
2019-01-25 10:00:00 5.7 4 Sudeste 6 Sudeste 0 946.2 1.8 97
2019-01-25 09:00:00 4 4 Este 9 Este 0 945.9 2.1 95
2019-01-25 08:00:00 3.9 4 Sudoeste 9 Sudoeste 0 945.1 1.2 95
2019-01-25 07:00:00 4.4 0 Calma 10 Sur 0 944.4 0.4 92
2019-01-25 06:00:00 5.4 6 Sudoeste 12 Sudeste 0 943.8 -0.1 90
2019-01-25 05:00:00 6.1 6 Sudoeste 12 Norte 0 943.9 0.2 86
2019-01-25 04:00:00 5.5 5 Norte 11 Nordeste 0 944 0.6 93
2019-01-25 03:00:00 5.5 3 Sur 6 Sudeste 0 943.9 0.9 91
2019-01-25 02:00:00 6.5 2 Norte 6 Oeste 0 943.7 1.1 90
2019-01-25 01:00:00 7.7 4 Noroeste 8 Sudoeste 0 943.4 0.9 87
2019-01-25 00:00:00 8.7 2 Oeste 9 Noroeste 0 943 1.3 83
2019-01-24 23:00:00 10.4 5 Oeste 9 Oeste 0 942.6 1.4 80
2019-01-24 22:00:00 11 4 Noroeste 12 Sudoeste 0 942.5 1.7 78
2019-01-24 21:00:00 11.8 7 Sudoeste 14 Oeste 0 941.7 1.6 74
2019-01-24 20:00:00 13.3 7 Sudoeste 15 Noroeste 0 941.2 1.5 66
2019-01-24 19:00:00 14.9 7 Noroeste 19 Noroeste 0 940.8 1.4 54
2019-01-24 18:00:00 15.7 8 Noroeste 21 Noroeste 0 940.1 1.1 51
2019-01-24 17:00:00 16.3 14 Noroeste 27 Noroeste 0 939.7 0.6 48
2019-01-24 16:00:00 16.3 10 Noroeste 28 Noroeste 0 939.4 0.4 48
2019-01-24 15:00:00 15.8 12 Noroeste 28 Noroeste 0 939 -0.4 50
2019-01-24 14:00:00 15.3 9 Oeste 23 Oeste 0 939.1 0.5 55
2019-01-24 13:00:00 14.1 8 Oeste 18 Oeste 0 939 0 62
2019-01-24 12:00:00 11.9 9 Oeste 19 Sudoeste 0 939.4 0.8 72
2019-01-24 11:00:00 9.4 9 Oeste 21 Sudoeste 0 938.6 0.4 82
2019-01-24 10:00:00 7.6 9 Oeste 19 Oeste 0 939 1.4 90
2019-01-24 09:00:00 6.4 6 Oeste 22 Sudoeste 0 938.6 1 93
2019-01-24 08:00:00 6.1 6 Sudoeste 20 Sudoeste 0 938.2 0.6 94
2019-01-24 07:00:00 6.1 7 Sudoeste 19 Oeste 0 937.6 0.2 94
2019-01-24 06:00:00 6.3 3 Sur 19 Oeste 0 937.6 0 93
2019-01-24 05:00:00 6.8 8 Oeste 22 Sudoeste 0 937.6 -0.2 92
2019-01-24 04:00:00 7 11 Oeste 26 Sudoeste 0 937.4 -0.7 91
2019-01-24 03:00:00 7 10 Sudoeste 22 Oeste 0 937.6 -0.1 90
2019-01-24 02:00:00 7.3 9 Oeste 24 Sudoeste 0 937.8 0.1 87
2019-01-24 01:00:00 7.8 9 Oeste 26 Oeste 0 938.1 0.3 83
2019-01-24 00:00:00 8.3 8 Oeste 24 Oeste 0 937.7 -0.4 80